Terminal Aerodrome Forecast
Issued by NWS

Home | Current Version | Previous Version | Text Only | Print | Product List | Glossary On
Versions: 1 2 3 4 5 6 7 8 9 10 11 12 13 14 15 16 17 18 19 20 21 22 23 24 25
000
FTAK31 PAFA 231805 AAA
TAFASC
TAF AMD
PASC 231805Z 2318/2418 25007KT P6SM FEW002 FEW080
      TEMPO 2318/2320 1 1/2SM BR
     FM232300 06008KT 6SM BR OVC012
     FM240300 06007KT P6SM BKN007
     FM240600 10007KT 2SM BR BKN007=

USA.gov is the U.S. government's official web portal to all federal, state and local government web resources and services.